Time;durP1;ratioP1;P1;durP2;ratioP2;P2;SDS_P1;SDS_P2;PMS_P1;PMS_P2;Temp;Humidity;BMP_temperature;BMP_pressure;BME280_temperature;BME280_humidity;BME280_pressure;Samples;Min_cycle;Max_cycle;Signal;HPM_P1;HPM_P2
2022/12/03 00:02:08;;;;;;;28.83;10.98;;;;;;;;;;4897394;29;20057;-77
2022/12/03 00:04:35;;;;;;;28.67;10.60;;;;;;;;;;4877044;29;20056;-77
2022/12/03 00:07:02;;;;;;;29.92;11.32;;;;;;;;;;4893038;29;20836;-76
2022/12/03 00:09:28;;;;;;;26.30;11.10;;;;;;;;;;4902353;29;20057;-77
2022/12/03 00:11:55;;;;;;;29.20;10.73;;;;;;;;;;4889245;29;20065;-77
2022/12/03 00:14:21;;;;;;;30.45;11.60;;;;;;;;;;4890544;29;20612;-77
2022/12/03 00:16:48;;;;;;;29.42;11.43;;;;;;;;;;4886345;29;20053;-76
2022/12/03 00:19:14;;;;;;;31.02;11.55;;;;;;;;;;4891215;29;20071;-77
2022/12/03 00:21:41;;;;;;;26.63;11.55;;;;;;;;;;4878246;29;20066;-77
2022/12/03 00:24:07;;;;;;;32.90;12.70;;;;;;;;;;4872454;29;20409;-76
2022/12/03 00:26:34;;;;;;;34.03;12.43;;;;;;;;;;4862890;29;20117;-75
2022/12/03 00:29:00;;;;;;;30.17;11.55;;;;;;;;;;4893914;29;20135;-76
2022/12/03 00:31:26;;;;;;;32.85;12.18;;;;;;;;;;4877101;29;20141;-77
2022/12/03 00:33:53;;;;;;;32.33;10.93;;;;;;;;;;4888958;29;20068;-76
2022/12/03 00:36:19;;;;;;;32.33;12.15;;;;;;;;;;4889946;29;20067;-75
2022/12/03 00:38:46;;;;;;;30.10;12.02;;;;;;;;;;4873863;29;20053;-76
2022/12/03 00:41:12;;;;;;;30.63;11.80;;;;;;;;;;4865810;29;20493;-77
2022/12/03 00:43:39;;;;;;;31.67;11.65;;;;;;;;;;4884109;29;20056;-76
2022/12/03 00:46:05;;;;;;;30.88;12.10;;;;;;;;;;4904281;29;20060;-76
2022/12/03 00:48:32;;;;;;;31.77;12.05;;;;;;;;;;4888119;29;20065;-76
2022/12/03 00:50:58;;;;;;;29.85;13.00;;;;;;;;;;4868994;29;20064;-77
2022/12/03 00:53:25;;;;;;;33.00;12.23;;;;;;;;;;4870626;29;20338;-77
2022/12/03 00:55:52;;;;;;;32.00;12.05;;;;;;;;;;4885424;29;20063;-76
2022/12/03 00:58:18;;;;;;;27.70;10.77;;;;;;;;;;4870480;29;20061;-76
2022/12/03 01:00:45;;;;;;;31.65;11.73;;;;;;;;;;4882945;29;21846;-76
2022/12/03 01:03:11;;;;;;;33.58;12.10;;;;;;;;;;4885915;29;20975;-76
2022/12/03 01:05:37;;;;;;;31.75;12.40;;;;;;;;;;4883023;29;20076;-77
2022/12/03 01:08:04;;;;;;;32.65;11.45;;;;;;;;;;4865713;29;20057;-76
2022/12/03 01:10:30;;;;;;;29.38;11.80;;;;;;;;;;4865671;29;20125;-76
2022/12/03 01:12:56;;;;;;;28.85;10.98;;;;;;;;;;4884755;29;20515;-76
2022/12/03 01:15:23;;;;;;;32.88;11.60;;;;;;;;;;4887084;29;20057;-76
2022/12/03 01:17:49;;;;;;;28.77;10.77;;;;;;;;;;4869649;29;20151;-76
2022/12/03 01:20:15;;;;;;;30.80;12.38;;;;;;;;;;4885800;29;20053;-76
2022/12/03 01:22:42;;;;;;;32.53;12.13;;;;;;;;;;4879022;29;20060;-76
2022/12/03 01:25:08;;;;;;;26.33;10.90;;;;;;;;;;4886601;29;20064;-76
2022/12/03 01:27:34;;;;;;;32.28;11.43;;;;;;;;;;4868881;29;20199;-76
2022/12/03 01:30:01;;;;;;;33.95;13.05;;;;;;;;;;4887009;29;20488;-76
2022/12/03 01:32:27;;;;;;;32.83;11.32;;;;;;;;;;4877938;29;20599;-76
2022/12/03 01:34:54;;;;;;;30.13;11.70;;;;;;;;;;4887526;29;20538;-76
2022/12/03 01:37:22;;;;;;;29.50;11.75;;;;;;;;;;4883614;29;20060;-76
2022/12/03 01:39:49;;;;;;;29.95;11.88;;;;;;;;;;4888866;29;20073;-76
2022/12/03 01:42:16;;;;;;;29.90;11.43;;;;;;;;;;4884491;29;20067;-75
2022/12/03 01:44:43;;;;;;;36.45;12.30;;;;;;;;;;4871357;29;20057;-76
2022/12/03 01:47:12;;;;;;;30.70;11.55;;;;;;;;;;4888545;29;20119;-75
2022/12/03 01:50:02;;;;;;;29.77;11.32;;;;;;;;;;4874172;29;20579;-76
2022/12/03 01:52:29;;;;;;;28.38;11.23;;;;;;;;;;4865457;29;20061;-76
2022/12/03 01:54:57;;;;;;;32.20;11.65;;;;;;;;;;4873921;29;20063;-76
2022/12/03 01:57:25;;;;;;;31.35;11.50;;;;;;;;;;4872356;29;20057;-75
2022/12/03 01:59:52;;;;;;;31.65;12.07;;;;;;;;;;4888600;29;20053;-75
2022/12/03 02:02:21;;;;;;;33.88;12.13;;;;;;;;;;4884466;29;20088;-76
2022/12/03 02:04:48;;;;;;;33.38;12.27;;;;;;;;;;4889008;29;20193;-76
2022/12/03 02:07:25;;;;;;;35.75;12.63;;;;;;;;;;4873008;29;20057;-75
2022/12/03 02:09:52;;;;;;;36.50;12.98;;;;;;;;;;4889668;29;20065;-76
2022/12/03 02:12:21;;;;;;;32.05;11.93;;;;;;;;;;4885047;29;20437;-75
2022/12/03 02:14:48;;;;;;;36.05;12.25;;;;;;;;;;4886910;29;20057;-76
2022/12/03 02:17:14;;;;;;;31.73;11.80;;;;;;;;;;4863765;29;20432;-75
2022/12/03 02:19:41;;;;;;;31.92;11.55;;;;;;;;;;4869652;29;20057;-75
2022/12/03 02:22:19;;;;;;;34.60;12.35;;;;;;;;;;4873834;29;20081;-75
2022/12/03 02:24:58;;;;;;;31.55;11.40;;;;;;;;;;4877550;29;20505;-76
2022/12/03 02:27:27;;;;;;;34.08;12.55;;;;;;;;;;4869365;29;20057;-75
2022/12/03 02:29:53;;;;;;;30.05;11.68;;;;;;;;;;4872361;29;20069;-76
2022/12/03 02:32:22;;;;;;;29.40;11.45;;;;;;;;;;4862628;29;20117;-75
2022/12/03 02:34:48;;;;;;;33.40;13.02;;;;;;;;;;4870497;29;20144;-75
2022/12/03 02:37:17;;;;;;;30.42;11.60;;;;;;;;;;4889470;29;20068;-76
2022/12/03 02:39:46;;;;;;;33.30;11.77;;;;;;;;;;4872582;29;20060;-76
2022/12/03 02:44:58;;;;;;;36.47;12.65;;;;;;;;;;4889410;29;20061;-76
2022/12/03 02:47:32;;;;;;;33.63;12.48;;;;;;;;;;4907228;29;20495;-76
2022/12/03 02:49:59;;;;;;;35.50;12.60;;;;;;;;;;4891026;29;20200;-76
2022/12/03 02:52:26;;;;;;;32.25;11.50;;;;;;;;;;4882608;29;20069;-75
2022/12/03 02:54:52;;;;;;;33.92;12.95;;;;;;;;;;4889113;29;20065;-76
2022/12/03 02:57:19;;;;;;;33.03;11.95;;;;;;;;;;4873166;29;20589;-76
2022/12/03 02:59:46;;;;;;;37.05;12.20;;;;;;;;;;4875030;29;20057;-75
2022/12/03 03:02:12;;;;;;;32.05;12.63;;;;;;;;;;4884609;29;21123;-76
2022/12/03 03:04:40;;;;;;;33.22;12.23;;;;;;;;;;4891518;29;20874;-76
2022/12/03 03:07:06;;;;;;;35.47;13.15;;;;;;;;;;4891496;29;20061;-76
2022/12/03 03:09:34;;;;;;;35.60;13.32;;;;;;;;;;4892014;29;20067;-76
2022/12/03 03:12:00;;;;;;;34.25;12.98;;;;;;;;;;4891653;29;20057;-75
2022/12/03 03:14:26;;;;;;;34.55;13.45;;;;;;;;;;4875606;29;20053;-75
2022/12/03 03:16:54;;;;;;;33.65;11.75;;;;;;;;;;4890489;29;20057;-76
2022/12/03 03:19:23;;;;;;;37.25;12.95;;;;;;;;;;4876348;29;20152;-76
2022/12/03 03:21:50;;;;;;;33.13;12.48;;;;;;;;;;4872735;29;20149;-75
2022/12/03 03:24:16;;;;;;;36.17;13.05;;;;;;;;;;4891996;29;20073;-75
2022/12/03 03:26:42;;;;;;;33.25;11.80;;;;;;;;;;4892528;29;20140;-76
2022/12/03 03:29:09;;;;;;;36.25;13.13;;;;;;;;;;4891016;29;20057;-76
2022/12/03 03:31:36;;;;;;;35.17;12.95;;;;;;;;;;4889005;29;20049;-76
2022/12/03 03:34:03;;;;;;;33.67;12.90;;;;;;;;;;4891330;29;20456;-76
2022/12/03 03:36:30;;;;;;;35.70;13.55;;;;;;;;;;4875525;29;20057;-75
2022/12/03 03:38:57;;;;;;;34.00;12.82;;;;;;;;;;4892680;29;20064;-77
2022/12/03 03:41:24;;;;;;;32.92;12.98;;;;;;;;;;4886417;29;20816;-76
2022/12/03 03:43:50;;;;;;;34.55;12.98;;;;;;;;;;4892272;29;20934;-76
2022/12/03 03:46:17;;;;;;;40.17;13.95;;;;;;;;;;4891918;29;20117;-76
2022/12/03 03:48:44;;;;;;;37.53;13.48;;;;;;;;;;4892267;29;20064;-76
2022/12/03 03:51:11;;;;;;;36.35;13.18;;;;;;;;;;4887356;29;20114;-76
2022/12/03 03:53:42;;;;;;;37.85;12.57;;;;;;;;;;4890056;29;20126;-76
2022/12/03 03:56:08;;;;;;;;;;;;;;;;;;4891178;29;20141;-76
2022/12/03 03:58:35;;;;;;;33.65;13.38;;;;;;;;;;4887552;29;48120;-76
2022/12/03 04:01:01;;;;;;;37.08;13.57;;;;;;;;;;4892720;29;20059;-76
2022/12/03 04:03:28;;;;;;;36.70;13.52;;;;;;;;;;4890658;29;20499;-76
2022/12/03 04:05:54;;;;;;;33.78;13.68;;;;;;;;;;4871071;29;20151;-76
2022/12/03 04:08:21;;;;;;;35.42;13.63;;;;;;;;;;4890156;29;20588;-76
2022/12/03 04:13:37;;;;;;;36.15;13.60;;;;;;;;;;4889589;29;20084;-75
2022/12/03 04:16:03;;;;;;;36.17;14.18;;;;;;;;;;4887755;29;20061;-75
2022/12/03 04:18:42;;;;;;;39.00;13.48;;;;;;;;;;4889835;29;20061;-75
2022/12/03 04:23:54;;;;;;;34.38;13.20;;;;;;;;;;4891197;29;20057;-76
2022/12/03 04:29:05;;;;;;;33.78;13.32;;;;;;;;;;4889566;29;20141;-76
2022/12/03 04:37:02;;;;;;;37.45;14.05;;;;;;;;;;4887723;29;20084;-76
2022/12/03 04:39:28;;;;;;;32.70;12.85;;;;;;;;;;4905903;29;20060;-76
2022/12/03 04:41:54;;;;;;;36.13;13.25;;;;;;;;;;4888670;29;20457;-76
2022/12/03 04:44:36;;;;;;;29.10;12.63;;;;;;;;;;4882785;29;20072;-76
2022/12/03 04:47:08;;;;;;;31.95;11.60;;;;;;;;;;4893834;29;20052;-76
2022/12/03 04:49:37;;;;;;;29.27;11.52;;;;;;;;;;4889832;29;20060;-76
2022/12/03 04:52:03;;;;;;;34.42;12.63;;;;;;;;;;4890522;29;20068;-76
2022/12/03 04:54:30;;;;;;;31.45;12.40;;;;;;;;;;4881504;29;20059;-75
2022/12/03 04:56:56;;;;;;;30.63;12.73;;;;;;;;;;4888250;29;20064;-76
2022/12/03 04:59:23;;;;;;;37.50;12.25;;;;;;;;;;4890963;29;20535;-75
2022/12/03 05:01:49;;;;;;;31.23;12.30;;;;;;;;;;4890520;29;20053;-75
2022/12/03 05:04:16;;;;;;;29.92;11.45;;;;;;;;;;4890659;29;20069;-76
2022/12/03 05:06:43;;;;;;;32.40;11.45;;;;;;;;;;4885222;29;20559;-76
2022/12/03 05:09:10;;;;;;;30.75;12.32;;;;;;;;;;4870707;29;20084;-76
2022/12/03 05:11:36;;;;;;;29.52;12.55;;;;;;;;;;4874181;29;20067;-76
2022/12/03 05:14:03;;;;;;;31.48;11.68;;;;;;;;;;4890417;29;20525;-76
2022/12/03 05:16:29;;;;;;;30.15;12.60;;;;;;;;;;4891340;29;20524;-76
2022/12/03 05:18:56;;;;;;;35.95;14.45;;;;;;;;;;4876557;29;20643;-76
2022/12/03 05:21:23;;;;;;;33.20;13.55;;;;;;;;;;4891440;29;20156;-76
2022/12/03 05:23:49;;;;;;;34.63;13.80;;;;;;;;;;4888762;29;20056;-76
2022/12/03 05:26:15;;;;;;;37.47;13.93;;;;;;;;;;4889138;29;20056;-77
2022/12/03 05:28:42;;;;;;;34.17;12.60;;;;;;;;;;4893748;29;20057;-76
2022/12/03 05:31:08;;;;;;;38.97;14.52;;;;;;;;;;4891337;29;20128;-76
2022/12/03 05:33:35;;;;;;;38.97;13.75;;;;;;;;;;4882051;29;20559;-76
2022/12/03 05:36:09;;;;;;;37.05;14.85;;;;;;;;;;4889175;29;20057;-76
2022/12/03 05:38:35;;;;;;;34.70;14.05;;;;;;;;;;4876150;29;20057;-76
2022/12/03 05:41:01;;;;;;;30.15;12.90;;;;;;;;;;4877383;29;20505;-76
2022/12/03 05:43:28;;;;;;;33.95;13.15;;;;;;;;;;4884454;29;20061;-76
2022/12/03 05:45:54;;;;;;;36.10;13.43;;;;;;;;;;4888648;29;20057;-76
2022/12/03 05:48:21;;;;;;;35.33;14.27;;;;;;;;;;4892723;29;20417;-76
2022/12/03 05:50:47;;;;;;;34.72;14.27;;;;;;;;;;4884340;29;20068;-76
2022/12/03 05:53:14;;;;;;;33.92;13.50;;;;;;;;;;4891921;29;20213;-76
2022/12/03 05:55:41;;;;;;;33.78;13.90;;;;;;;;;;4873595;29;20053;-77
2022/12/03 05:58:07;;;;;;;37.83;13.10;;;;;;;;;;4890895;29;20144;-76
2022/12/03 06:00:38;;;;;;;36.90;14.00;;;;;;;;;;4892867;29;20491;-76
2022/12/03 06:03:08;;;;;;;35.65;13.77;;;;;;;;;;4895265;29;20061;-76
2022/12/03 06:05:35;;;;;;;31.35;13.73;;;;;;;;;;4886687;29;20080;-76
2022/12/03 06:08:01;;;;;;;31.15;12.63;;;;;;;;;;4891833;29;20509;-76
2022/12/03 06:10:28;;;;;;;33.03;13.63;;;;;;;;;;4893179;29;20093;-75
2022/12/03 06:12:55;;;;;;;34.35;13.32;;;;;;;;;;4893027;29;20060;-76
2022/12/03 06:15:21;;;;;;;34.60;12.15;;;;;;;;;;4887906;29;20053;-76
2022/12/03 06:17:47;;;;;;;32.47;13.32;;;;;;;;;;4872537;29;20065;-76
2022/12/03 06:20:16;;;;;;;31.60;13.07;;;;;;;;;;4897077;29;20092;-76
2022/12/03 06:22:42;;;;;;;30.55;12.75;;;;;;;;;;4890699;29;20055;-75
2022/12/03 06:25:09;;;;;;;35.50;12.40;;;;;;;;;;4892547;29;20088;-76
2022/12/03 06:27:35;;;;;;;27.58;11.80;;;;;;;;;;4890767;29;20113;-76
2022/12/03 06:30:03;;;;;;;29.33;11.95;;;;;;;;;;4873282;29;20057;-76
2022/12/03 06:32:30;;;;;;;33.58;12.93;;;;;;;;;;4891824;29;20071;-76
2022/12/03 06:34:56;;;;;;;31.25;12.82;;;;;;;;;;4892229;29;20556;-76
2022/12/03 06:37:23;;;;;;;33.45;12.40;;;;;;;;;;4893033;29;20065;-76
2022/12/03 06:39:49;;;;;;;33.38;12.77;;;;;;;;;;4887419;29;20064;-75
2022/12/03 06:42:16;;;;;;;33.40;12.68;;;;;;;;;;4889135;29;20121;-75
2022/12/03 06:44:42;;;;;;;33.67;12.82;;;;;;;;;;4892622;29;20061;-76
2022/12/03 06:47:08;;;;;;;31.38;12.88;;;;;;;;;;4892910;29;20057;-76
2022/12/03 06:49:35;;;;;;;31.88;13.07;;;;;;;;;;4895069;29;20075;-76
2022/12/03 06:52:01;;;;;;;30.27;12.55;;;;;;;;;;4889034;29;20064;-76
2022/12/03 06:54:28;;;;;;;32.67;12.90;;;;;;;;;;4892291;29;20132;-76
2022/12/03 06:56:54;;;;;;;31.50;13.02;;;;;;;;;;4906732;29;20061;-76
2022/12/03 06:59:21;;;;;;;33.38;12.98;;;;;;;;;;4890410;29;20057;-75
2022/12/03 07:01:47;;;;;;;31.95;12.82;;;;;;;;;;4889962;29;20053;-76
2022/12/03 07:04:14;;;;;;;34.30;12.80;;;;;;;;;;4885730;29;20531;-77
2022/12/03 07:06:40;;;;;;;31.38;12.45;;;;;;;;;;4875152;29;20065;-76
2022/12/03 07:09:06;;;;;;;34.70;13.88;;;;;;;;;;4895000;29;20057;-76
2022/12/03 07:11:39;;;;;;;36.28;13.73;;;;;;;;;;4897790;29;20144;-76
2022/12/03 07:14:06;;;;;;;36.60;12.98;;;;;;;;;;4890182;29;20061;-76
2022/12/03 07:16:36;;;;;;;35.25;13.60;;;;;;;;;;4873431;29;20089;-76
2022/12/03 07:19:04;;;;;;;33.17;12.82;;;;;;;;;;4892238;29;20065;-76
2022/12/03 07:21:30;;;;;;;39.08;13.50;;;;;;;;;;4876039;29;20057;-78
2022/12/03 07:23:57;;;;;;;32.03;12.77;;;;;;;;;;4893188;29;20079;-76
2022/12/03 07:26:23;;;;;;;32.70;13.23;;;;;;;;;;4885114;29;20593;-76
2022/12/03 07:28:50;;;;;;;36.75;14.18;;;;;;;;;;4891783;29;20049;-76
2022/12/03 07:31:19;;;;;;;36.53;13.65;;;;;;;;;;4863845;29;20072;-76
2022/12/03 07:33:46;;;;;;;33.95;13.23;;;;;;;;;;4894232;29;20068;-78
2022/12/03 07:36:12;;;;;;;34.38;13.73;;;;;;;;;;4897297;29;20605;-76
2022/12/03 07:38:39;;;;;;;35.55;13.93;;;;;;;;;;4890017;29;20081;-76
2022/12/03 07:41:05;;;;;;;34.88;12.52;;;;;;;;;;4893265;29;20056;-77
2022/12/03 07:43:31;;;;;;;34.20;12.88;;;;;;;;;;4899023;29;20084;-76
2022/12/03 07:45:59;;;;;;;38.63;12.93;;;;;;;;;;4883402;29;20065;-76
2022/12/03 07:48:26;;;;;;;31.35;11.68;;;;;;;;;;4891195;29;20066;-78
2022/12/03 07:50:52;;;;;;;39.58;13.35;;;;;;;;;;4888760;29;20152;-76
2022/12/03 07:53:18;;;;;;;33.05;13.57;;;;;;;;;;4889062;29;20113;-77
2022/12/03 07:55:45;;;;;;;34.50;13.55;;;;;;;;;;4888219;29;20060;-77
2022/12/03 07:58:11;;;;;;;37.13;13.70;;;;;;;;;;4869776;29;20053;-76
2022/12/03 08:00:38;;;;;;;35.92;13.18;;;;;;;;;;4871028;29;20054;-76
2022/12/03 08:03:05;;;;;;;36.30;14.32;;;;;;;;;;4889143;29;20069;-76
2022/12/03 08:05:31;;;;;;;36.38;13.60;;;;;;;;;;4855625;29;20065;-76
2022/12/03 08:07:57;;;;;;;38.20;15.48;;;;;;;;;;4882918;29;20053;-77
2022/12/03 08:10:24;;;;;;;38.78;14.52;;;;;;;;;;4890586;29;20061;-77
2022/12/03 08:12:50;;;;;;;37.53;13.18;;;;;;;;;;4889171;29;20057;-77
2022/12/03 08:15:18;;;;;;;36.25;13.80;;;;;;;;;;4889895;29;20072;-77
2022/12/03 08:17:46;;;;;;;40.55;14.50;;;;;;;;;;4888762;29;20057;-76
2022/12/03 08:20:13;;;;;;;45.45;14.85;;;;;;;;;;4874927;29;20068;-76
2022/12/03 08:22:40;;;;;;;42.75;15.43;;;;;;;;;;4890839;29;20057;-76
2022/12/03 08:25:12;;;;;;;38.88;14.45;;;;;;;;;;4890846;29;20069;-76
2022/12/03 08:27:38;;;;;;;39.08;14.98;;;;;;;;;;4891254;29;20049;-77
2022/12/03 08:30:05;;;;;;;42.50;16.00;;;;;;;;;;4888315;29;20064;-77
2022/12/03 08:32:31;;;;;;;43.53;15.60;;;;;;;;;;4879958;29;20073;-77
2022/12/03 08:34:59;;;;;;;40.72;15.88;;;;;;;;;;4886107;29;20075;-76
2022/12/03 08:37:27;;;;;;;43.15;14.75;;;;;;;;;;4889439;29;20063;-77
2022/12/03 08:39:54;;;;;;;39.50;14.52;;;;;;;;;;4890733;29;20057;-76
2022/12/03 08:45:26;;;;;;;40.35;14.63;;;;;;;;;;4890800;29;20065;-76
2022/12/03 08:47:56;;;;;;;36.15;13.85;;;;;;;;;;4873444;29;20064;-76
2022/12/03 08:50:27;;;;;;;38.63;15.50;;;;;;;;;;4872732;29;20524;-77
2022/12/03 08:52:58;;;;;;;41.67;14.60;;;;;;;;;;4888873;29;20140;-76
2022/12/03 08:55:47;;;;;;;43.53;14.50;;;;;;;;;;4890772;29;20128;-77
2022/12/03 08:58:25;;;;;;;37.40;14.07;;;;;;;;;;4884679;29;20621;-77
2022/12/03 09:00:55;;;;;;;40.97;14.95;;;;;;;;;;4890775;29;20057;-77
2022/12/03 09:03:22;;;;;;;41.00;15.32;;;;;;;;;;4885376;29;20057;-76
2022/12/03 09:05:48;;;;;;;35.58;13.32;;;;;;;;;;4887780;29;20061;-77
2022/12/03 09:08:14;;;;;;;39.13;15.23;;;;;;;;;;4890440;29;20081;-77
2022/12/03 09:10:41;;;;;;;43.08;15.23;;;;;;;;;;4890086;29;20076;-76
2022/12/03 09:13:08;;;;;;;42.10;15.23;;;;;;;;;;4890774;29;20061;-77
2022/12/03 09:15:34;;;;;;;40.20;15.40;;;;;;;;;;4883453;29;20140;-76
2022/12/03 09:18:00;;;;;;;42.17;15.45;;;;;;;;;;4888898;29;20086;-77
2022/12/03 09:20:27;;;;;;;41.88;15.10;;;;;;;;;;4884689;29;20137;-77
2022/12/03 09:22:53;;;;;;;42.88;14.75;;;;;;;;;;4891294;29;20553;-78
2022/12/03 09:25:19;;;;;;;45.13;15.63;;;;;;;;;;4887704;29;20063;-76
2022/12/03 09:27:46;;;;;;;37.88;14.45;;;;;;;;;;4889086;29;20144;-76
2022/12/03 09:30:12;;;;;;;49.05;17.50;;;;;;;;;;4887847;29;20064;-77
2022/12/03 09:32:39;;;;;;;41.83;14.75;;;;;;;;;;4888676;29;20494;-76
2022/12/03 09:35:05;;;;;;;50.33;17.30;;;;;;;;;;4888222;29;20521;-76
2022/12/03 09:37:32;;;;;;;42.28;15.98;;;;;;;;;;4888464;29;20517;-76
2022/12/03 09:39:58;;;;;;;47.65;17.73;;;;;;;;;;4888056;29;20107;-77
2022/12/03 09:42:24;;;;;;;47.15;15.63;;;;;;;;;;4889018;29;20053;-76
2022/12/03 09:44:51;;;;;;;40.53;15.48;;;;;;;;;;4889686;29;20548;-76
2022/12/03 09:47:17;;;;;;;39.05;14.52;;;;;;;;;;4890052;29;20049;-77
2022/12/03 09:49:44;;;;;;;43.33;14.70;;;;;;;;;;4890119;29;20064;-76
2022/12/03 09:52:12;;;;;;;41.08;14.80;;;;;;;;;;4887833;29;20061;-77
2022/12/03 09:54:38;;;;;;;42.53;12.60;;;;;;;;;;4860621;29;20068;-76
2022/12/03 09:57:17;;;;;;;37.72;13.07;;;;;;;;;;4887104;29;20060;-77
2022/12/03 09:59:44;;;;;;;36.85;12.75;;;;;;;;;;4888175;29;20584;-76
2022/12/03 10:02:20;;;;;;;41.35;13.20;;;;;;;;;;4902170;29;20066;-77
2022/12/03 10:04:47;;;;;;;43.10;13.13;;;;;;;;;;4881002;29;20576;-76
2022/12/03 10:07:13;;;;;;;41.45;14.15;;;;;;;;;;4890720;29;20071;-76
2022/12/03 10:09:40;;;;;;;48.83;14.82;;;;;;;;;;4889493;29;20568;-77
2022/12/03 10:12:10;;;;;;;45.55;15.32;;;;;;;;;;4890781;29;20522;-76
2022/12/03 10:14:37;;;;;;;45.83;14.55;;;;;;;;;;4874127;29;20069;-76
2022/12/03 10:17:03;;;;;;;45.95;15.10;;;;;;;;;;4891375;29;20064;-76
2022/12/03 10:19:31;;;;;;;41.83;14.38;;;;;;;;;;4887407;29;21436;-76
2022/12/03 10:21:57;;;;;;;51.60;15.05;;;;;;;;;;4887411;29;20064;-76
2022/12/03 10:24:27;;;;;;;54.95;15.43;;;;;;;;;;4889002;29;20888;-76
2022/12/03 10:27:17;;;;;;;49.07;15.43;;;;;;;;;;4883546;29;20061;-76
2022/12/03 10:29:52;;;;;;;45.58;14.15;;;;;;;;;;4888559;29;20117;-77
2022/12/03 10:32:23;;;;;;;49.17;15.02;;;;;;;;;;4873937;29;20113;-77
2022/12/03 10:35:05;;;;;;;46.63;15.05;;;;;;;;;;4873704;29;20064;-77
2022/12/03 10:37:31;;;;;;;50.78;13.95;;;;;;;;;;4882094;29;20061;-76
2022/12/03 10:40:07;;;;;;;49.70;14.40;;;;;;;;;;4891008;29;20097;-77
2022/12/03 10:42:35;;;;;;;50.25;15.07;;;;;;;;;;4889322;29;20064;-77
2022/12/03 10:45:05;;;;;;;46.40;14.05;;;;;;;;;;4889224;29;20067;-77
2022/12/03 10:47:31;;;;;;;47.42;14.90;;;;;;;;;;4889527;29;20080;-76
2022/12/03 10:50:03;;;;;;;45.55;15.15;;;;;;;;;;4888519;29;20057;-77
2022/12/03 10:52:29;;;;;;;46.65;14.60;;;;;;;;;;4879582;29;20064;-77
2022/12/03 10:54:55;;;;;;;49.00;13.73;;;;;;;;;;4882668;29;20065;-76
2022/12/03 10:57:22;;;;;;;47.50;13.82;;;;;;;;;;4890889;29;20530;-77
2022/12/03 10:59:48;;;;;;;48.88;15.43;;;;;;;;;;4891306;29;20076;-76
2022/12/03 11:02:19;;;;;;;50.33;14.50;;;;;;;;;;4891569;29;20543;-76
2022/12/03 11:04:46;;;;;;;47.30;14.48;;;;;;;;;;4868270;29;20151;-76
2022/12/03 11:07:17;;;;;;;53.40;16.67;;;;;;;;;;4871532;29;20065;-77
2022/12/03 11:09:48;;;;;;;45.55;15.88;;;;;;;;;;4892290;29;20480;-76
2022/12/03 11:12:22;;;;;;;52.28;16.20;;;;;;;;;;4900752;29;20506;-77
2022/12/03 11:14:52;;;;;;;45.47;16.17;;;;;;;;;;4898072;29;20109;-77
2022/12/03 11:17:19;;;;;;;;;;;;;;;;;;4871934;29;20061;-77
2022/12/03 11:19:46;;;;;;;41.67;13.70;;;;;;;;;;4876412;29;46558;-76
2022/12/03 11:22:13;;;;;;;45.92;16.33;;;;;;;;;;4859004;29;20152;-77
2022/12/03 11:24:39;;;;;;;39.58;14.25;;;;;;;;;;4889155;29;20438;-76
2022/12/03 11:27:05;;;;;;;41.28;13.82;;;;;;;;;;4903338;29;20134;-77
2022/12/03 11:29:46;;;;;;;44.08;15.20;;;;;;;;;;4911407;29;20094;-77
2022/12/03 11:32:51;;;;;;;40.25;14.85;;;;;;;;;;4883489;29;20136;-77
2022/12/03 11:35:23;;;;;;;44.53;15.45;;;;;;;;;;4811557;29;20542;-77
2022/12/03 11:37:50;;;;;;;41.58;14.43;;;;;;;;;;4817252;29;20066;-77
2022/12/03 11:40:16;;;;;;;43.50;15.55;;;;;;;;;;4831141;29;20143;-76
2022/12/03 11:42:44;;;;;;;41.72;13.13;;;;;;;;;;4882592;29;20058;-76
2022/12/03 11:45:29;;;;;;;39.17;13.38;;;;;;;;;;4887186;29;20075;-76
2022/12/03 11:47:58;;;;;;;37.50;14.07;;;;;;;;;;4874134;29;20148;-76
2022/12/03 11:50:37;;;;;;;35.53;12.63;;;;;;;;;;4887681;29;20049;-76
2022/12/03 11:53:20;;;;;;;29.48;11.32;;;;;;;;;;4861744;29;20918;-76
2022/12/03 11:55:50;;;;;;;36.05;11.85;;;;;;;;;;4882655;29;20696;-77
2022/12/03 11:58:23;;;;;;;32.95;11.30;;;;;;;;;;4885404;29;20065;-76
2022/12/03 12:00:56;;;;;;;28.67;10.43;;;;;;;;;;4886453;29;20509;-76
2022/12/03 12:03:27;;;;;;;32.33;10.90;;;;;;;;;;4885850;29;20600;-76
2022/12/03 12:06:08;;;;;;;28.73;10.07;;;;;;;;;;4869467;29;20061;-76
2022/12/03 12:08:36;;;;;;;30.58;10.57;;;;;;;;;;4879114;29;20064;-77
2022/12/03 12:11:03;;;;;;;28.55;10.55;;;;;;;;;;4883507;29;20092;-77
2022/12/03 12:13:29;;;;;;;29.88;11.23;;;;;;;;;;4874091;29;20597;-76
2022/12/03 12:15:56;;;;;;;29.27;10.40;;;;;;;;;;4872050;29;20160;-76
2022/12/03 12:18:33;;;;;;;29.42;10.70;;;;;;;;;;4887911;29;20501;-77
2022/12/03 12:21:18;;;;;;;27.05;10.50;;;;;;;;;;4888394;29;20156;-77
2022/12/03 12:23:44;;;;;;;33.63;10.07;;;;;;;;;;4890576;29;20057;-77
2022/12/03 12:26:11;;;;;;;28.70;10.25;;;;;;;;;;4898332;29;20113;-77
2022/12/03 12:28:37;;;;;;;30.88;10.65;;;;;;;;;;4887573;29;20540;-76
2022/12/03 12:31:09;;;;;;;28.58;9.32;;;;;;;;;;4888651;29;20061;-77
2022/12/03 12:33:35;;;;;;;27.10;9.40;;;;;;;;;;4873969;29;20065;-76
2022/12/03 12:36:07;;;;;;;27.73;10.98;;;;;;;;;;4887893;29;20588;-76
2022/12/03 12:38:33;;;;;;;27.88;10.32;;;;;;;;;;4889724;29;20692;-76
2022/12/03 12:41:03;;;;;;;27.23;10.68;;;;;;;;;;4902561;29;20061;-76
2022/12/03 12:43:32;;;;;;;28.95;9.98;;;;;;;;;;4881255;29;20113;-76
2022/12/03 12:45:59;;;;;;;36.88;10.57;;;;;;;;;;4866977;29;20118;-76
2022/12/03 12:48:46;;;;;;;27.90;10.13;;;;;;;;;;4873506;29;20553;-76
2022/12/03 12:51:14;;;;;;;31.42;11.00;;;;;;;;;;4895632;29;20058;-77
2022/12/03 12:53:44;;;;;;;29.80;10.55;;;;;;;;;;4874108;29;20549;-77
2022/12/03 12:56:19;;;;;;;30.38;10.35;;;;;;;;;;4892923;29;20147;-76
2022/12/03 12:58:45;;;;;;;31.90;10.43;;;;;;;;;;4873541;29;20064;-77
2022/12/03 13:01:18;;;;;;;30.00;9.95;;;;;;;;;;4876937;29;20573;-76
2022/12/03 13:03:44;;;;;;;25.42;9.93;;;;;;;;;;4896527;29;20579;-76
2022/12/03 13:06:13;;;;;;;26.77;9.20;;;;;;;;;;4908906;29;20068;-76
2022/12/03 13:08:41;;;;;;;29.77;10.13;;;;;;;;;;4887606;29;20068;-76
2022/12/03 13:11:23;;;;;;;28.05;9.23;;;;;;;;;;4885846;29;20057;-76
2022/12/03 13:13:49;;;;;;;32.67;10.18;;;;;;;;;;4873538;29;20064;-76
2022/12/03 13:16:25;;;;;;;29.90;10.02;;;;;;;;;;4888005;29;20064;-76
2022/12/03 13:18:52;;;;;;;29.15;10.25;;;;;;;;;;4882864;29;20213;-76
2022/12/03 13:21:37;;;;;;;32.65;9.85;;;;;;;;;;4890860;29;20061;-76
2022/12/03 13:24:22;;;;;;;26.83;10.82;;;;;;;;;;4888651;29;20049;-76
2022/12/03 13:26:48;;;;;;;31.05;10.40;;;;;;;;;;4878947;29;20144;-76
2022/12/03 13:29:17;;;;;;;30.10;10.15;;;;;;;;;;4887072;29;20063;-76
2022/12/03 13:31:53;;;;;;;31.30;10.45;;;;;;;;;;4885042;29;20065;-76
2022/12/03 13:34:20;;;;;;;28.65;9.55;;;;;;;;;;4878375;29;20543;-76
2022/12/03 13:36:47;;;;;;;33.95;10.13;;;;;;;;;;4891380;29;20057;-76
2022/12/03 13:39:25;;;;;;;30.13;9.85;;;;;;;;;;4903856;29;20065;-76
2022/12/03 13:44:42;;;;;;;30.25;10.30;;;;;;;;;;4887861;29;20068;-76
2022/12/03 13:47:19;;;;;;;32.85;10.52;;;;;;;;;;4888573;29;20644;-76
2022/12/03 13:50:02;;;;;;;35.22;10.93;;;;;;;;;;4876391;29;20108;-76
2022/12/03 13:52:31;;;;;;;35.35;11.20;;;;;;;;;;4890962;29;20053;-76
2022/12/03 13:55:01;;;;;;;37.95;11.25;;;;;;;;;;4888978;29;20049;-76
2022/12/03 13:57:27;;;;;;;34.03;10.10;;;;;;;;;;4888105;29;20064;-76
2022/12/03 13:59:54;;;;;;;41.63;12.93;;;;;;;;;;4893353;29;20057;-76
2022/12/03 14:02:20;;;;;;;45.05;13.23;;;;;;;;;;4892063;29;20060;-76
2022/12/03 14:04:47;;;;;;;49.28;14.90;;;;;;;;;;4893256;29;20057;-76
2022/12/03 14:07:13;;;;;;;50.65;14.75;;;;;;;;;;4871143;29;20068;-76
2022/12/03 14:09:45;;;;;;;54.60;15.52;;;;;;;;;;4889918;29;20532;-76
2022/12/03 14:12:27;;;;;;;52.38;17.23;;;;;;;;;;4882877;29;20080;-76
2022/12/03 14:15:11;;;;;;;55.53;15.95;;;;;;;;;;4862424;29;20091;-76
2022/12/03 14:17:38;;;;;;;49.33;14.48;;;;;;;;;;4885748;29;20564;-76
2022/12/03 14:20:05;;;;;;;48.20;14.50;;;;;;;;;;4888988;29;20631;-76
2022/12/03 14:22:31;;;;;;;50.72;15.90;;;;;;;;;;4911632;29;20482;-76
2022/12/03 14:24:57;;;;;;;54.40;15.98;;;;;;;;;;4874763;29;20144;-76
2022/12/03 14:27:24;;;;;;;47.53;14.85;;;;;;;;;;4892883;29;20060;-76
2022/12/03 14:29:50;;;;;;;55.03;17.48;;;;;;;;;;4899554;29;20057;-77
2022/12/03 14:32:17;;;;;;;45.30;14.63;;;;;;;;;;4888221;29;20064;-76
2022/12/03 14:34:44;;;;;;;46.25;16.05;;;;;;;;;;4888316;29;20064;-76
2022/12/03 14:37:10;;;;;;;47.42;13.82;;;;;;;;;;4888960;29;20053;-76
2022/12/03 14:39:36;;;;;;;42.25;14.95;;;;;;;;;;4890635;29;20057;-76
2022/12/03 14:42:12;;;;;;;40.78;13.55;;;;;;;;;;4888458;29;20091;-76
2022/12/03 14:44:46;;;;;;;46.65;15.30;;;;;;;;;;4884448;29;20502;-76
2022/12/03 14:47:13;;;;;;;43.38;13.75;;;;;;;;;;4889732;29;20432;-77
2022/12/03 14:49:40;;;;;;;38.83;12.50;;;;;;;;;;4890237;29;20136;-76